Time;durP1;ratioP1;P1;durP2;ratioP2;P2;SDS_P1;SDS_P2;PMS_P1;PMS_P2;Temp;Humidity;BMP_temperature;BMP_pressure;BME280_temperature;BME280_humidity;BME280_pressure;Samples;Min_cycle;Max_cycle;Signal;HPM_P1;HPM_P2
2023/11/04 00:01:34;;;;;;;0.73;0.73;;;12.70;99.90;;;;;;5108521;27;20317;-76
2023/11/04 00:03:59;;;;;;;0.30;0.20;;;12.70;99.90;;;;;;5108900;28;20783;-88
2023/11/04 00:06:25;;;;;;;0.30;0.20;;;12.70;99.90;;;;;;5124218;27;20510;-76
2023/11/04 00:08:52;;;;;;;2.20;2.10;;;12.60;99.90;;;;;;5108756;28;20450;-76
2023/11/04 00:11:18;;;;;;;0.40;0.38;;;12.60;99.90;;;;;;5108916;28;20168;-88
2023/11/04 00:13:44;;;;;;;0.30;0.20;;;12.60;99.90;;;;;;5115395;28;20734;-87
2023/11/04 00:16:10;;;;;;;1.90;1.80;;;12.60;99.90;;;;;;5126470;27;20420;-87
2023/11/04 00:18:36;;;;;;;2.03;1.93;;;12.60;99.90;;;;;;5108970;28;20451;-88
2023/11/04 00:21:02;;;;;;;0.60;0.60;;;12.70;99.90;;;;;;5124283;27;20274;-77
2023/11/04 00:23:28;;;;;;;0.30;0.20;;;12.70;99.90;;;;;;5108759;28;20532;-76
2023/11/04 00:25:53;;;;;;;0.30;0.20;;;12.70;99.90;;;;;;5108009;28;20893;-77
2023/11/04 00:28:19;;;;;;;0.30;0.20;;;12.70;99.90;;;;;;5107463;28;20553;-77
2023/11/04 00:30:45;;;;;;;0.40;0.30;;;12.70;99.90;;;;;;5123519;27;20301;-77
2023/11/04 00:33:11;;;;;;;1.00;0.97;;;12.60;99.90;;;;;;5108341;28;20251;-88
2023/11/04 00:35:36;;;;;;;0.30;0.20;;;12.60;99.90;;;;;;5107602;28;20370;-77
2023/11/04 00:38:02;;;;;;;1.70;1.60;;;12.60;99.90;;;;;;5108659;28;20265;-77
2023/11/04 00:40:28;;;;;;;0.40;0.30;;;12.60;99.90;;;;;;5108342;28;20285;-87
2023/11/04 00:42:54;;;;;;;0.30;0.20;;;12.60;99.90;;;;;;5108439;28;20519;-77
2023/11/04 00:45:19;;;;;;;0.30;0.20;;;12.60;99.90;;;;;;5123758;27;20415;-79
2023/11/04 00:47:45;;;;;;;0.40;0.30;;;12.50;99.90;;;;;;5123616;27;20672;-88
2023/11/04 00:50:11;;;;;;;0.30;0.20;;;12.50;99.90;;;;;;5107962;28;20172;-81
2023/11/04 00:52:37;;;;;;;0.30;0.20;;;12.50;99.90;;;;;;5107926;28;20432;-78
2023/11/04 00:55:03;;;;;;;1.03;1.03;;;12.50;99.90;;;;;;5123404;27;20219;-77
2023/11/04 00:57:29;;;;;;;2.70;2.60;;;12.50;99.90;;;;;;5124187;27;20423;-88
2023/11/04 00:59:54;;;;;;;0.30;0.20;;;12.50;99.90;;;;;;5125071;27;20436;-88
2023/11/04 01:02:20;;;;;;;5.70;2.00;;;12.50;99.90;;;;;;5107682;27;20203;-77
2023/11/04 01:04:46;;;;;;;0.80;0.80;;;12.40;99.90;;;;;;5122906;27;20354;-87
2023/11/04 01:07:11;;;;;;;0.30;0.20;;;12.40;99.90;;;;;;5123954;27;20171;-87
2023/11/04 01:09:37;;;;;;;17.60;16.30;;;12.40;99.90;;;;;;5123569;27;20196;-77
2023/11/04 01:12:04;;;;;;;0.30;0.20;;;12.40;99.90;;;;;;5107698;28;20199;-87
2023/11/04 01:14:30;;;;;;;0.67;0.67;;;12.40;99.90;;;;;;5106441;28;20768;-88
2023/11/04 01:16:55;;;;;;;0.30;0.20;;;12.40;99.90;;;;;;5107607;28;20737;-77
2023/11/04 01:19:21;;;;;;;2.70;2.50;;;12.40;99.90;;;;;;5107379;28;20452;-79
2023/11/04 01:21:48;;;;;;;0.40;0.40;;;12.40;99.90;;;;;;5123566;27;20172;-87
2023/11/04 01:24:14;;;;;;;0.33;0.30;;;12.40;99.90;;;;;;5106942;28;20196;-88
2023/11/04 01:26:40;;;;;;;0.73;0.73;;;12.40;99.90;;;;;;5107549;28;20775;-87
2023/11/04 01:29:08;;;;;;;0.40;0.40;;;12.40;99.90;;;;;;5109054;28;20211;-88
2023/11/04 01:31:34;;;;;;;0.30;0.20;;;12.40;99.90;;;;;;5109979;28;20434;-89
2023/11/04 01:33:59;;;;;;;0.40;0.30;;;12.40;99.90;;;;;;5108726;28;20480;-88
2023/11/04 01:36:25;;;;;;;0.30;0.30;;;12.40;99.90;;;;;;5109452;28;20180;-87
2023/11/04 01:38:51;;;;;;;0.30;0.20;;;12.40;99.90;;;;;;5109781;28;20237;-87
2023/11/04 01:41:16;;;;;;;0.30;0.20;;;12.40;99.90;;;;;;5107006;28;20224;-87
2023/11/04 01:43:42;;;;;;;1.03;0.97;;;12.40;99.90;;;;;;5121886;27;20455;-76
2023/11/04 01:46:09;;;;;;;0.30;0.20;;;12.50;99.90;;;;;;5122578;27;20175;-87
2023/11/04 01:48:35;;;;;;;0.30;0.30;;;12.50;99.90;;;;;;5122721;27;20241;-77
2023/11/04 01:51:03;;;;;;;0.38;0.20;;;12.50;99.90;;;;;;5106816;28;20647;-77
2023/11/04 01:53:30;;;;;;;0.30;0.20;;;12.40;99.90;;;;;;5107061;28;20477;-88
2023/11/04 01:55:56;;;;;;;0.30;0.20;;;12.30;99.90;;;;;;5107365;28;20442;-77
2023/11/04 01:58:22;;;;;;;0.30;0.30;;;12.30;99.90;;;;;;5106495;28;20432;-76
2023/11/04 02:00:49;;;;;;;0.30;0.20;;;12.30;99.90;;;;;;5121839;27;20430;-87
2023/11/04 02:03:17;;;;;;;0.30;0.20;;;12.30;99.90;;;;;;5106607;28;20713;-77
2023/11/04 02:05:43;;;;;;;0.30;0.20;;;12.30;99.90;;;;;;5122956;27;20703;-76
2023/11/04 02:08:09;;;;;;;1.03;1.03;;;12.30;99.90;;;;;;5111901;28;20848;-77
2023/11/04 02:10:35;;;;;;;1.03;1.03;;;12.30;99.90;;;;;;5106474;28;20226;-87
2023/11/04 02:13:01;;;;;;;0.70;0.70;;;12.40;99.90;;;;;;5106025;28;21042;-88
2023/11/04 02:15:27;;;;;;;0.93;0.93;;;12.40;99.90;;;;;;5106314;28;20548;-77
2023/11/04 02:17:53;;;;;;;0.30;0.30;;;12.50;99.90;;;;;;5122162;28;20432;-77
2023/11/04 02:20:20;;;;;;;3.60;0.90;;;12.50;99.90;;;;;;5106229;28;20424;-79
2023/11/04 02:22:46;;;;;;;0.30;0.20;;;12.50;99.90;;;;;;5122089;28;20928;-77
2023/11/04 02:25:15;;;;;;;4.53;1.10;;;12.50;99.90;;;;;;5107483;28;20411;-77
2023/11/04 02:27:44;;;;;;;0.30;0.30;;;12.50;99.90;;;;;;5122184;28;20271;-76
2023/11/04 02:30:11;;;;;;;0.40;0.40;;;12.50;99.90;;;;;;5105685;28;20400;-77
2023/11/04 02:32:40;;;;;;;0.30;0.20;;;12.50;99.90;;;;;;5122240;28;20959;-77
2023/11/04 02:35:06;;;;;;;0.40;0.30;;;12.50;99.90;;;;;;5106152;28;20447;-87
2023/11/04 02:37:32;;;;;;;11.87;2.73;;;12.50;99.90;;;;;;5106405;28;20812;-88
2023/11/04 02:39:58;;;;;;;0.30;0.20;;;12.50;99.90;;;;;;5106258;28;20423;-87
2023/11/04 02:42:24;;;;;;;0.30;0.30;;;12.60;99.90;;;;;;5122041;28;20935;-77
2023/11/04 02:44:49;;;;;;;0.87;0.87;;;12.60;99.90;;;;;;5121453;28;20543;-88
2023/11/04 02:47:15;;;;;;;0.30;0.30;;;12.60;99.90;;;;;;5122345;28;20197;-86
2023/11/04 02:49:41;;;;;;;0.30;0.20;;;12.60;99.90;;;;;;5106062;28;20260;-88
2023/11/04 02:52:07;;;;;;;0.30;0.20;;;12.50;99.90;;;;;;5106329;28;20175;-83
2023/11/04 02:54:33;;;;;;;2.30;2.20;;;12.50;99.90;;;;;;5105780;28;20218;-89
2023/11/04 02:56:59;;;;;;;0.30;0.20;;;12.50;99.90;;;;;;5109347;28;20408;-82
2023/11/04 02:59:27;;;;;;;0.30;0.20;;;12.50;99.90;;;;;;5126383;27;20203;-88
2023/11/04 03:01:53;;;;;;;0.30;0.20;;;12.40;99.90;;;;;;5126115;27;20806;-89
2023/11/04 03:04:19;;;;;;;0.30;0.20;;;12.40;99.90;;;;;;5109871;28;20204;-77
2023/11/04 03:06:45;;;;;;;0.30;0.30;;;12.40;99.90;;;;;;5110129;28;20396;-79
2023/11/04 03:09:11;;;;;;;0.30;0.20;;;12.40;99.90;;;;;;5111159;28;20435;-89
2023/11/04 03:11:37;;;;;;;0.30;0.20;;;12.40;99.90;;;;;;5110634;27;20192;-88
2023/11/04 03:14:02;;;;;;;1.37;1.33;;;12.50;99.90;;;;;;5110452;28;20515;-89
2023/11/04 03:16:29;;;;;;;0.50;0.50;;;12.50;99.90;;;;;;5109883;28;20457;-84
2023/11/04 03:18:55;;;;;;;0.50;0.50;;;12.50;99.90;;;;;;5125403;27;20661;-88
2023/11/04 03:21:21;;;;;;;0.30;0.20;;;12.40;99.90;;;;;;5125555;27;20453;-79
2023/11/04 03:23:47;;;;;;;0.60;0.60;;;12.40;99.90;;;;;;5109087;28;20437;-77
2023/11/04 03:26:13;;;;;;;0.82;0.80;;;12.40;99.90;;;;;;5125321;27;20383;-88
2023/11/04 03:28:38;;;;;;;0.30;0.20;;;12.40;99.90;;;;;;5124533;27;20294;-87
2023/11/04 03:31:04;;;;;;;2.20;2.10;;;12.30;99.90;;;;;;5109139;28;20404;-85
2023/11/04 03:33:30;;;;;;;0.30;0.20;;;12.20;99.90;;;;;;5109274;28;20250;-87
2023/11/04 03:35:56;;;;;;;0.30;0.20;;;12.10;99.90;;;;;;5126522;27;20400;-87
2023/11/04 03:38:22;;;;;;;1.17;1.17;;;12.00;99.90;;;;;;5124860;27;20232;-76
2023/11/04 03:40:48;;;;;;;0.30;0.27;;;11.90;99.90;;;;;;5109092;28;20640;-86
2023/11/04 03:43:13;;;;;;;3.13;3.03;;;11.90;99.90;;;;;;5108993;28;20611;-88
2023/11/04 03:45:39;;;;;;;0.30;0.20;;;11.90;99.90;;;;;;5108932;28;20679;-77
2023/11/04 03:48:05;;;;;;;0.30;0.30;;;11.80;99.90;;;;;;5109183;28;20219;-88
2023/11/04 03:50:30;;;;;;;0.40;0.30;;;11.90;99.90;;;;;;5110686;28;20542;-87
2023/11/04 03:52:56;;;;;;;0.40;0.40;;;11.80;99.90;;;;;;5109370;28;20184;-88
2023/11/04 03:55:22;;;;;;;0.40;0.40;;;11.90;99.90;;;;;;5124882;27;20219;-83
2023/11/04 03:57:48;;;;;;;0.30;0.20;;;11.90;99.90;;;;;;5123924;27;20394;-76
2023/11/04 04:00:14;;;;;;;0.30;0.20;;;11.90;99.90;;;;;;5124955;27;20431;-85
2023/11/04 04:02:40;;;;;;;0.60;0.60;;;12.00;99.90;;;;;;5109217;28;20800;-88
2023/11/04 04:05:07;;;;;;;3.23;3.13;;;12.00;99.90;;;;;;5109037;28;20186;-87
2023/11/04 04:07:33;;;;;;;0.32;0.20;;;12.00;99.90;;;;;;5108809;28;20618;-87
2023/11/04 04:10:00;;;;;;;1.40;1.33;;;12.10;99.90;;;;;;5109494;28;20678;-88
2023/11/04 04:12:26;;;;;;;0.30;0.20;;;12.20;99.90;;;;;;5112708;28;20570;-76
2023/11/04 04:14:51;;;;;;;0.30;0.30;;;12.20;99.90;;;;;;5108483;28;20211;-87
2023/11/04 04:17:17;;;;;;;0.47;0.47;;;12.10;99.90;;;;;;5108919;28;20396;-87
2023/11/04 04:19:43;;;;;;;0.77;0.77;;;12.10;99.90;;;;;;5108207;28;20191;-88
2023/11/04 04:22:09;;;;;;;0.30;0.20;;;12.00;99.90;;;;;;5109146;28;20416;-86
2023/11/04 04:24:38;;;;;;;2.50;2.40;;;12.00;99.90;;;;;;5123574;27;20448;-87
2023/11/04 04:27:04;;;;;;;0.30;0.20;;;11.90;99.90;;;;;;5108730;27;20447;-76
2023/11/04 04:29:30;;;;;;;0.30;0.22;;;11.80;99.90;;;;;;5123961;27;20249;-75
2023/11/04 04:31:57;;;;;;;0.82;0.82;;;11.80;99.90;;;;;;5124106;27;20637;-77
2023/11/04 04:34:22;;;;;;;0.90;0.90;;;11.80;99.90;;;;;;5108060;28;20222;-88
2023/11/04 04:36:48;;;;;;;0.40;0.33;;;11.80;99.90;;;;;;5123924;27;20167;-79
2023/11/04 04:39:14;;;;;;;0.30;0.20;;;11.80;99.90;;;;;;5123889;27;20199;-77
2023/11/04 04:41:40;;;;;;;0.30;0.20;;;11.80;99.90;;;;;;5124176;27;20507;-80
2023/11/04 04:44:06;;;;;;;1.20;1.10;;;11.80;99.90;;;;;;5123490;27;20675;-88
2023/11/04 04:46:34;;;;;;;0.30;0.20;;;11.80;99.90;;;;;;5108692;28;20588;-85
2023/11/04 04:49:00;;;;;;;0.30;0.20;;;11.70;99.90;;;;;;5109089;28;20986;-77
2023/11/04 04:51:25;;;;;;;0.30;0.20;;;11.70;99.90;;;;;;5109518;28;20171;-77
2023/11/04 04:53:51;;;;;;;0.30;0.20;;;11.70;99.90;;;;;;5107865;28;20301;-76
2023/11/04 04:56:17;;;;;;;3.23;3.13;;;11.70;99.90;;;;;;5123527;27;20183;-77
2023/11/04 04:58:42;;;;;;;0.30;0.20;;;11.60;99.90;;;;;;5107823;28;20196;-77
2023/11/04 05:01:20;;;;;;;0.30;0.20;;;11.60;99.90;;;;;;5107881;28;20175;-77
2023/11/04 05:03:46;;;;;;;4.32;4.13;;;11.50;99.90;;;;;;5107260;28;20687;-88
2023/11/04 05:06:12;;;;;;;9.15;2.80;;;11.50;99.90;;;;;;5107392;28;20176;-87
2023/11/04 05:08:38;;;;;;;0.30;0.20;;;11.40;99.90;;;;;;5107750;28;20240;-76
2023/11/04 05:11:04;;;;;;;1.48;1.40;;;11.40;99.90;;;;;;5107863;28;20383;-88
2023/11/04 05:13:30;;;;;;;2.90;2.80;;;11.40;99.90;;;;;;5123237;27;20242;-88
2023/11/04 05:15:56;;;;;;;0.30;0.20;;;11.40;99.90;;;;;;5123091;27;20176;-83
2023/11/04 05:18:22;;;;;;;0.90;0.90;;;11.40;99.90;;;;;;5122311;27;20449;-76
2023/11/04 05:20:48;;;;;;;0.30;0.20;;;11.40;99.90;;;;;;5106608;28;20371;-82
2023/11/04 05:23:14;;;;;;;0.53;0.53;;;11.40;99.90;;;;;;5107334;28;20274;-76
2023/11/04 05:25:40;;;;;;;0.50;0.50;;;11.40;99.90;;;;;;5123549;27;20416;-77
2023/11/04 05:28:06;;;;;;;0.30;0.20;;;11.40;99.90;;;;;;5109523;28;20287;-88
2023/11/04 05:30:34;;;;;;;0.60;0.60;;;11.40;99.90;;;;;;5107544;28;20623;-84
2023/11/04 05:33:00;;;;;;;0.30;0.20;;;11.40;99.90;;;;;;5122165;27;20420;-88
2023/11/04 05:35:26;;;;;;;0.30;0.30;;;11.50;99.90;;;;;;5106549;28;20210;-87
2023/11/04 05:37:52;;;;;;;0.30;0.30;;;11.40;99.90;;;;;;5106807;28;20460;-76
2023/11/04 05:40:18;;;;;;;0.30;0.20;;;11.40;99.90;;;;;;5122376;27;20175;-77
2023/11/04 05:42:44;;;;;;;0.30;0.30;;;11.50;99.90;;;;;;5122237;27;20511;-77
2023/11/04 05:45:10;;;;;;;1.17;1.10;;;11.50;99.90;;;;;;5106498;28;20396;-88
2023/11/04 05:47:35;;;;;;;0.83;0.83;;;11.50;99.90;;;;;;5106862;28;20205;-89
2023/11/04 05:50:02;;;;;;;0.40;0.40;;;11.60;99.90;;;;;;5122004;27;20245;-77
2023/11/04 05:52:28;;;;;;;0.30;0.30;;;11.60;99.90;;;;;;5122587;27;20698;-77
2023/11/04 05:54:54;;;;;;;0.30;0.20;;;11.60;99.90;;;;;;5105826;28;20211;-77
2023/11/04 05:57:19;;;;;;;0.30;0.27;;;11.60;99.90;;;;;;5107065;28;20491;-90
2023/11/04 05:59:45;;;;;;;0.30;0.20;;;11.60;99.90;;;;;;5121753;27;20432;-89
2023/11/04 06:02:12;;;;;;;21.80;11.93;;;11.70;99.90;;;;;;5107499;28;20658;-77
2023/11/04 06:04:38;;;;;;;1.38;1.27;;;11.70;99.90;;;;;;5105358;28;20196;-76
2023/11/04 06:07:04;;;;;;;0.30;0.20;;;11.60;99.90;;;;;;5122037;27;20543;-77
2023/11/04 06:09:31;;;;;;;0.30;0.20;;;11.70;99.90;;;;;;5106482;28;20462;-88
2023/11/04 06:11:59;;;;;;;0.30;0.20;;;11.70;99.90;;;;;;5106472;28;20820;-88
2023/11/04 06:14:28;;;;;;;0.30;0.20;;;11.70;99.90;;;;;;5122788;27;20342;-77
2023/11/04 06:16:54;;;;;;;2.15;1.95;;;11.80;99.90;;;;;;5110346;28;20171;-88
2023/11/04 06:19:20;;;;;;;0.30;0.20;;;11.80;99.90;;;;;;5122139;28;20656;-88
2023/11/04 06:21:45;;;;;;;0.93;0.93;;;11.80;99.90;;;;;;5106430;28;20163;-79
2023/11/04 06:24:11;;;;;;;0.30;0.20;;;11.90;99.90;;;;;;5105979;28;20286;-84
2023/11/04 06:26:37;;;;;;;0.30;0.20;;;11.90;99.90;;;;;;5106331;28;20218;-88
2023/11/04 06:29:04;;;;;;;0.30;0.20;;;11.90;99.90;;;;;;5106918;28;20812;-88
2023/11/04 06:31:30;;;;;;;0.30;0.30;;;12.00;99.90;;;;;;5111670;28;20898;-77
2023/11/04 06:33:56;;;;;;;0.43;0.40;;;12.00;99.90;;;;;;5109362;28;20223;-77
2023/11/04 06:36:22;;;;;;;0.30;0.20;;;12.00;99.90;;;;;;5110592;28;20404;-77
2023/11/04 06:38:47;;;;;;;0.40;0.40;;;12.10;99.90;;;;;;5126260;27;20448;-87
2023/11/04 06:41:17;;;;;;;0.30;0.20;;;12.10;99.90;;;;;;5110261;28;20408;-87
2023/11/04 06:43:46;;;;;;;0.30;0.20;;;12.10;99.90;;;;;;5126107;27;20318;-87
2023/11/04 06:46:13;;;;;;;0.30;0.20;;;12.20;99.90;;;;;;5126353;27;20632;-87
2023/11/04 06:48:38;;;;;;;0.30;0.20;;;12.20;99.90;;;;;;5125855;27;20195;-77
2023/11/04 06:51:05;;;;;;;0.40;0.20;;;12.20;99.90;;;;;;5110197;27;20472;-86
2023/11/04 06:53:31;;;;;;;0.30;0.20;;;12.20;99.90;;;;;;5125907;27;20211;-76
2023/11/04 06:55:58;;;;;;;1.67;1.58;;;12.30;99.90;;;;;;5109706;27;20427;-77
2023/11/04 06:58:30;;;;;;;0.30;0.30;;;12.20;99.90;;;;;;5110505;27;20199;-87
2023/11/04 07:00:57;;;;;;;0.60;0.57;;;12.30;99.90;;;;;;5126511;27;20182;-88
2023/11/04 07:03:22;;;;;;;0.30;0.20;;;12.30;99.90;;;;;;5115623;28;21031;-87
2023/11/04 07:05:48;;;;;;;0.30;0.20;;;12.30;99.90;;;;;;5109593;28;20589;-76
2023/11/04 07:08:14;;;;;;;0.30;0.20;;;12.30;99.90;;;;;;5109373;28;20579;-88
2023/11/04 07:10:41;;;;;;;3.23;2.47;;;12.30;99.90;;;;;;5109410;28;20180;-86
2023/11/04 07:13:13;;;;;;;0.30;0.28;;;12.30;99.90;;;;;;5123364;27;20966;-77
2023/11/04 07:15:41;;;;;;;0.97;0.97;;;12.40;99.90;;;;;;5108527;28;20176;-88
2023/11/04 07:18:07;;;;;;;2.73;1.00;;;12.40;99.90;;;;;;5108749;28;20444;-88
2023/11/04 07:20:38;;;;;;;1.45;1.30;;;12.40;99.90;;;;;;5108645;28;20450;-77
2023/11/04 07:23:04;;;;;;;2.30;1.60;;;12.40;99.90;;;;;;5110071;28;20719;-88
2023/11/04 07:25:30;;;;;;;18.77;17.93;;;12.50;99.90;;;;;;5108739;28;20404;-77
2023/11/04 07:27:56;;;;;;;1.67;1.60;;;12.50;99.90;;;;;;5108430;28;20786;-77
2023/11/04 07:30:22;;;;;;;0.30;0.20;;;12.60;99.90;;;;;;5110083;28;20179;-76
2023/11/04 07:32:47;;;;;;;0.30;0.20;;;12.60;99.90;;;;;;5107861;28;20420;-87
2023/11/04 07:35:14;;;;;;;1.33;1.33;;;12.60;99.90;;;;;;5107744;28;20208;-78
2023/11/04 07:37:39;;;;;;;0.30;0.20;;;12.60;99.90;;;;;;5122635;27;20186;-76
2023/11/04 07:40:06;;;;;;;0.30;0.20;;;12.60;99.90;;;;;;5107002;28;20552;-87
2023/11/04 07:42:32;;;;;;;0.30;0.20;;;12.70;99.90;;;;;;5122431;27;20183;-76
2023/11/04 07:44:58;;;;;;;0.30;0.30;;;12.80;99.90;;;;;;5107755;27;20511;-88
2023/11/04 07:47:23;;;;;;;0.30;0.20;;;12.90;99.90;;;;;;5124375;27;20499;-80
2023/11/04 07:49:50;;;;;;;0.50;0.50;;;13.00;99.90;;;;;;5108388;28;20600;-77
2023/11/04 07:52:16;;;;;;;0.30;0.20;;;13.10;99.90;;;;;;5124521;27;20297;-78
2023/11/04 07:54:42;;;;;;;1.40;1.30;;;13.30;99.90;;;;;;5108613;28;20478;-87
2023/11/04 07:57:07;;;;;;;0.30;0.30;;;13.50;99.90;;;;;;5125334;27;20635;-86
2023/11/04 07:59:33;;;;;;;0.30;0.20;;;13.80;99.90;;;;;;5124408;27;20569;-89
2023/11/04 08:01:59;;;;;;;0.30;0.20;;;14.10;99.90;;;;;;5127976;27;20237;-87
2023/11/04 08:04:26;;;;;;;0.30;0.30;;;14.30;99.90;;;;;;5108387;28;20473;-88
2023/11/04 08:06:52;;;;;;;0.30;0.20;;;14.60;99.90;;;;;;5108779;28;20615;-77
2023/11/04 08:09:18;;;;;;;0.30;0.20;;;14.70;99.90;;;;;;5124145;27;20452;-88
2023/11/04 08:11:43;;;;;;;0.30;0.30;;;14.80;99.90;;;;;;5108480;28;20950;-77
2023/11/04 08:14:09;;;;;;;0.30;0.20;;;14.90;99.90;;;;;;5123407;27;20708;-77
2023/11/04 08:16:35;;;;;;;0.30;0.20;;;15.00;99.90;;;;;;5124448;27;20172;-78
2023/11/04 08:19:00;;;;;;;0.50;0.50;;;15.20;99.90;;;;;;5124189;27;20271;-88
2023/11/04 08:21:29;;;;;;;0.30;0.20;;;15.30;99.90;;;;;;5123811;27;20172;-78
2023/11/04 08:23:59;;;;;;;2.57;2.37;;;15.40;99.90;;;;;;5108545;28;20644;-78
2023/11/04 08:26:25;;;;;;;2.10;2.00;;;15.40;99.90;;;;;;5110931;28;20396;-87
2023/11/04 08:28:52;;;;;;;0.30;0.20;;;15.40;99.90;;;;;;5124121;27;20971;-88
2023/11/04 08:31:18;;;;;;;0.90;0.87;;;15.40;99.90;;;;;;5108088;28;20785;-88
2023/11/04 08:33:44;;;;;;;0.30;0.30;;;15.30;99.90;;;;;;5123889;27;20564;-88
2023/11/04 08:36:10;;;;;;;0.30;0.20;;;15.30;99.90;;;;;;5108400;28;20412;-88
2023/11/04 08:38:36;;;;;;;0.30;0.20;;;15.20;99.90;;;;;;5123006;27;20497;-77
2023/11/04 08:41:02;;;;;;;0.30;0.30;;;15.10;99.90;;;;;;5123687;27;20451;-88
2023/11/04 08:43:28;;;;;;;0.60;0.60;;;15.00;99.90;;;;;;5108095;28;20689;-78
2023/11/04 08:45:54;;;;;;;1.17;1.17;;;14.90;99.90;;;;;;5123242;27;20408;-88
2023/11/04 08:48:20;;;;;;;0.30;0.20;;;14.90;99.90;;;;;;5107783;28;20798;-88
2023/11/04 08:50:45;;;;;;;0.30;0.20;;;14.80;99.90;;;;;;5123114;27;20172;-87
2023/11/04 08:53:11;;;;;;;0.33;0.30;;;14.80;99.90;;;;;;5125990;27;20275;-77
2023/11/04 08:55:37;;;;;;;0.97;0.97;;;14.70;99.90;;;;;;5110011;28;20183;-87
2023/11/04 08:58:02;;;;;;;0.40;0.30;;;14.70;99.90;;;;;;5107745;28;20216;-88
2023/11/04 09:00:29;;;;;;;0.30;0.20;;;14.60;99.90;;;;;;5107315;28;20540;-77
2023/11/04 09:02:55;;;;;;;1.07;1.03;;;14.60;99.90;;;;;;5123280;27;20186;-87
2023/11/04 09:05:22;;;;;;;0.50;0.20;;;14.60;99.90;;;;;;5123071;27;20462;-86
2023/11/04 09:07:47;;;;;;;0.40;0.20;;;14.60;99.90;;;;;;5123168;27;20428;-77
2023/11/04 09:10:13;;;;;;;0.73;0.73;;;14.60;99.90;;;;;;5123161;27;20984;-87
2023/11/04 09:12:39;;;;;;;0.37;0.30;;;14.70;99.90;;;;;;5123082;27;20183;-87
2023/11/04 09:15:05;;;;;;;0.30;0.20;;;14.70;99.90;;;;;;5122749;27;20211;-77
2023/11/04 09:17:31;;;;;;;0.30;0.20;;;14.70;99.90;;;;;;5123109;27;20443;-89
2023/11/04 09:19:57;;;;;;;0.53;0.53;;;14.80;99.90;;;;;;5122588;27;20427;-88
2023/11/04 09:22:23;;;;;;;1.53;1.43;;;14.90;99.90;;;;;;5107305;28;20182;-77
2023/11/04 09:24:49;;;;;;;0.30;0.20;;;15.10;99.90;;;;;;5122845;27;20473;-88
2023/11/04 09:27:15;;;;;;;2.83;2.63;;;15.30;99.90;;;;;;5122542;27;20405;-87
2023/11/04 09:29:40;;;;;;;0.53;0.53;;;15.40;99.90;;;;;;5122357;27;21003;-87
2023/11/04 09:32:06;;;;;;;1.37;1.37;;;15.50;99.90;;;;;;5107484;28;20635;-86
2023/11/04 09:34:32;;;;;;;2.87;2.73;;;15.70;99.90;;;;;;5107069;28;20241;-78
2023/11/04 09:36:59;;;;;;;0.87;0.70;;;15.70;99.90;;;;;;5123418;27;20289;-77
2023/11/04 09:39:24;;;;;;;0.50;0.47;;;15.90;99.90;;;;;;5121604;27;20444;-87
2023/11/04 09:41:53;;;;;;;1.07;1.07;;;16.00;99.90;;;;;;5106799;28;20745;-84
2023/11/04 09:44:19;;;;;;;0.30;0.20;;;16.10;99.90;;;;;;5122349;27;20219;-77
2023/11/04 09:46:45;;;;;;;0.30;0.20;;;16.20;99.90;;;;;;5107297;28;20558;-77
2023/11/04 09:49:11;;;;;;;0.30;0.20;;;16.30;99.90;;;;;;5106676;28;20492;-88
2023/11/04 09:51:37;;;;;;;0.43;0.40;;;16.30;99.90;;;;;;5107113;28;20825;-77
2023/11/04 09:54:04;;;;;;;0.40;0.40;;;16.30;99.90;;;;;;5108357;28;20480;-77
2023/11/04 09:56:30;;;;;;;0.40;0.40;;;16.30;99.90;;;;;;5122655;27;20829;-88
2023/11/04 09:58:56;;;;;;;1.20;1.20;;;16.30;99.90;;;;;;5106835;28;20709;-88
2023/11/04 10:01:21;;;;;;;0.30;0.20;;;16.20;99.90;;;;;;5106552;28;20259;-83
2023/11/04 10:03:48;;;;;;;0.33;0.30;;;16.20;99.90;;;;;;5122211;27;20195;-78
2023/11/04 10:06:15;;;;;;;0.70;0.70;;;16.30;99.90;;;;;;5121955;27;20186;-87
2023/11/04 10:08:42;;;;;;;0.30;0.20;;;16.30;99.90;;;;;;5106317;28;20442;-78
2023/11/04 10:11:09;;;;;;;0.40;0.40;;;16.40;99.90;;;;;;5106375;28;20400;-87
2023/11/04 10:13:36;;;;;;;0.30;0.20;;;16.40;99.90;;;;;;5106205;28;20479;-88
2023/11/04 10:16:03;;;;;;;0.30;0.20;;;16.40;99.90;;;;;;5121879;27;20448;-77
2023/11/04 10:18:32;;;;;;;0.30;0.20;;;16.50;99.90;;;;;;5122346;27;20451;-88
2023/11/04 10:20:59;;;;;;;0.30;0.20;;;16.50;99.90;;;;;;5122376;28;20415;-78
2023/11/04 10:23:24;;;;;;;0.30;0.30;;;16.40;99.90;;;;;;5122650;28;20448;-77
2023/11/04 10:25:51;;;;;;;0.30;0.20;;;16.40;99.90;;;;;;5106134;28;20413;-78
2023/11/04 10:28:18;;;;;;;0.30;0.20;;;16.40;99.90;;;;;;5105554;28;20180;-87
2023/11/04 10:30:44;;;;;;;0.30;0.20;;;16.40;99.90;;;;;;5106040;28;21000;-77
2023/11/04 10:33:13;;;;;;;0.30;0.20;;;16.40;99.90;;;;;;5121965;28;20439;-88
2023/11/04 10:35:42;;;;;;;0.30;0.20;;;16.30;99.90;;;;;;5121595;28;20464;-78
2023/11/04 10:38:11;;;;;;;2.93;1.60;;;16.30;99.90;;;;;;5124803;28;20685;-78
2023/11/04 10:40:36;;;;;;;12.37;6.83;;;16.30;99.90;;;;;;5108735;28;20408;-77
2023/11/04 10:43:08;;;;;;;2.10;2.00;;;16.30;99.90;;;;;;5106291;28;20451;-87
2023/11/04 10:45:56;;;;;;;0.40;0.40;;;16.20;99.90;;;;;;5121415;28;20480;-78
2023/11/04 10:48:48;;;;;;;0.30;0.20;;;16.20;99.90;;;;;;5121907;28;20448;-87
2023/11/04 10:51:42;;;;;;;0.50;0.50;;;16.20;99.90;;;;;;5106088;28;20928;-77
2023/11/04 10:54:18;;;;;;;0.30;0.20;;;16.10;99.90;;;;;;5100522;28;20479;-87
2023/11/04 10:56:55;;;;;;;0.30;0.20;;;16.10;99.90;;;;;;5106269;28;20471;-78
2023/11/04 11:00:00;;;;;;;0.87;0.77;;;16.10;99.90;;;;;;5121958;28;20443;-78
2023/11/04 11:02:27;;;;;;;0.30;0.20;;;16.10;99.90;;;;;;5103242;28;20435;-78
2023/11/04 11:04:54;;;;;;;18.03;7.67;;;16.10;99.90;;;;;;5121418;28;20979;-77
2023/11/04 11:07:20;;;;;;;8.90;8.27;;;16.10;99.90;;;;;;5121937;28;20408;-77
2023/11/04 11:09:47;;;;;;;0.40;0.20;;;16.10;99.90;;;;;;5121105;28;20440;-77
2023/11/04 11:12:20;;;;;;;0.40;0.40;;;16.20;99.90;;;;;;5106414;28;20420;-88
2023/11/04 11:14:46;;;;;;;0.30;0.20;;;16.20;99.90;;;;;;5120993;28;20521;-77
2023/11/04 11:17:11;;;;;;;0.30;0.20;;;16.30;99.90;;;;;;5107477;28;20411;-87
2023/11/04 11:19:52;;;;;;;0.30;0.20;;;16.40;99.90;;;;;;5108984;28;20875;-87
2023/11/04 11:22:25;;;;;;;0.30;0.20;;;16.50;99.90;;;;;;5109541;28;20164;-77
2023/11/04 11:24:58;;;;;;;0.30;0.20;;;16.50;99.90;;;;;;5124977;27;20440;-78
2023/11/04 11:27:24;;;;;;;0.30;0.30;;;16.60;99.90;;;;;;5112400;28;20492;-78
2023/11/04 11:29:53;;;;;;;0.30;0.20;;;16.70;99.90;;;;;;5108782;28;20932;-87
2023/11/04 11:32:19;;;;;;;0.30;0.20;;;16.70;99.90;;;;;;5110492;28;21029;-87
2023/11/04 11:34:50;;;;;;;0.30;0.20;;;16.80;99.90;;;;;;5109582;28;20840;-78
2023/11/04 11:37:26;;;;;;;0.40;0.30;;;16.80;99.90;;;;;;5108947;28;20794;-88
2023/11/04 11:39:52;;;;;;;0.30;0.20;;;16.80;99.90;;;;;;5108755;28;20814;-88
2023/11/04 11:42:25;;;;;;;0.30;0.20;;;16.70;99.90;;;;;;5124988;27;20428;-77
2023/11/04 11:44:51;;;;;;;0.30;0.20;;;16.70;99.90;;;;;;5110177;28;20427;-77
2023/11/04 11:47:18;;;;;;;0.30;0.20;;;16.70;99.90;;;;;;5125511;27;20468;-77
2023/11/04 11:49:44;;;;;;;0.30;0.20;;;16.70;99.90;;;;;;5108370;28;20432;-88
2023/11/04 11:52:10;;;;;;;0.30;0.20;;;16.70;99.90;;;;;;5125000;27;20416;-78
2023/11/04 11:54:39;;;;;;;0.30;0.20;;;16.70;99.90;;;;;;5124221;27;20821;-88
2023/11/04 11:57:05;;;;;;;0.30;0.20;;;16.80;99.90;;;;;;5108993;28;20412;-88
2023/11/04 11:59:34;;;;;;;0.30;0.20;;;16.80;99.90;;;;;;5124182;27;20534;-77
2023/11/04 12:02:00;;;;;;;0.60;0.60;;;16.70;99.90;;;;;;5124532;27;20579;-78
2023/11/04 12:04:26;;;;;;;0.30;0.20;;;16.80;99.90;;;;;;5108657;28;20432;-88
2023/11/04 12:06:53;;;;;;;0.30;0.20;;;16.70;99.90;;;;;;5124608;27;20412;-77
2023/11/04 12:09:24;;;;;;;0.30;0.20;;;16.70;99.90;;;;;;5108188;28;20585;-87
2023/11/04 12:11:53;;;;;;;0.40;0.40;;;16.70;99.90;;;;;;5124240;27;21008;-87
2023/11/04 12:14:21;;;;;;;0.30;0.20;;;16.70;99.90;;;;;;5124141;27;20546;-78
2023/11/04 12:16:47;;;;;;;0.30;0.20;;;16.80;99.90;;;;;;5124295;27;20429;-78
2023/11/04 12:19:14;;;;;;;0.30;0.20;;;16.80;99.90;;;;;;5124070;27;20451;-88
2023/11/04 12:21:40;;;;;;;0.30;0.20;;;16.90;99.90;;;;;;5124606;27;20416;-88
2023/11/04 12:24:06;;;;;;;0.30;0.20;;;16.90;99.90;;;;;;5124221;27;20460;-77
2023/11/04 12:26:33;;;;;;;0.30;0.20;;;17.00;99.90;;;;;;5124599;27;20721;-78
2023/11/04 12:28:59;;;;;;;0.30;0.20;;;17.00;99.90;;;;;;5109861;27;20437;-88
2023/11/04 12:31:27;;;;;;;0.30;0.20;;;17.10;99.90;;;;;;5108995;28;20482;-88
2023/11/04 12:33:53;;;;;;;0.30;0.20;;;17.10;99.90;;;;;;5124722;27;20905;-78
2023/11/04 12:36:19;;;;;;;0.30;0.20;;;17.00;99.90;;;;;;5108421;28;20488;-87
2023/11/04 12:38:46;;;;;;;0.30;0.20;;;17.00;99.90;;;;;;5106963;28;20543;-88
2023/11/04 12:41:12;;;;;;;0.30;0.20;;;16.90;99.90;;;;;;5123705;27;20189;-88
2023/11/04 12:43:38;;;;;;;0.30;0.20;;;16.90;99.90;;;;;;5123835;27;20506;-88